createdAt,value
2022-08-05T00:02:28.628Z,97706.50
2022-08-05T00:06:33.255Z,97775.72
2022-08-05T00:10:38.005Z,97838.97
2022-08-05T00:14:40.346Z,97807.97
2022-08-05T00:18:48.190Z,97784.50
2022-08-05T00:27:04.562Z,97830.97
2022-08-05T00:31:13.089Z,97800.41
2022-08-05T00:35:15.607Z,97789.22
2022-08-05T00:39:22.399Z,97771.28
2022-08-05T00:43:28.933Z,97767.75
2022-08-05T00:47:56.728Z,97776.03
2022-08-05T00:52:01.086Z,97884.47
2022-08-05T00:56:03.650Z,97851.09
2022-08-05T01:00:07.174Z,97863.75
2022-08-05T01:04:14.040Z,97840.06
2022-08-05T01:08:42.156Z,97782.16
2022-08-05T01:12:42.268Z,97700.47
2022-08-05T01:17:29.603Z,97671.34
2022-08-05T01:22:07.017Z,97637.75
2022-08-05T01:26:12.874Z,97658.25
2022-08-05T01:30:18.920Z,97657.69
2022-08-05T01:34:45.650Z,97665.22
2022-08-05T01:38:49.930Z,97656.72
2022-08-05T01:42:54.101Z,97651.09
2022-08-05T01:46:58.330Z,97690.28
2022-08-05T01:51:12.365Z,97669.06
2022-08-05T01:55:17.974Z,97672.09
2022-08-05T01:59:23.510Z,97674.22
2022-08-05T02:03:33.944Z,97686.91
2022-08-05T02:07:36.590Z,97685.22
2022-08-05T02:11:52.229Z,97668.31
2022-08-05T02:16:18.904Z,97586.25
2022-08-05T02:20:27.903Z,97567.66
2022-08-05T02:24:38.892Z,97574.16
2022-08-05T02:28:46.026Z,97579.75
2022-08-05T02:32:52.547Z,97542.38
2022-08-05T02:36:58.511Z,97525.69
2022-08-05T02:41:14.459Z,97521.22
2022-08-05T02:45:18.433Z,97541.69
2022-08-05T02:49:21.968Z,97592.59
2022-08-05T02:53:24.736Z,97709.88
2022-08-05T02:58:11.604Z,97766.53
2022-08-05T03:01:51.979Z,97770.13
2022-08-05T03:06:55.041Z,97762.13
2022-08-05T03:10:22.095Z,97746.84
2022-08-05T03:14:27.027Z,97747.66
2022-08-05T03:18:30.147Z,97737.38
2022-08-05T03:22:33.460Z,97748.78
2022-08-05T03:26:37.371Z,97739.50
2022-08-05T03:30:41.203Z,97748.34
2022-08-05T03:34:51.085Z,97760.72
2022-08-05T03:38:53.924Z,97734.34
2022-08-05T03:42:56.028Z,97725.47
2022-08-05T03:46:58.056Z,97738.41
2022-08-05T03:52:35.256Z,97758.34
2022-08-05T03:56:05.391Z,97769.88
2022-08-05T03:59:58.370Z,97763.41
2022-08-05T04:04:09.487Z,97788.69
2022-08-05T04:08:29.750Z,97809.75
2022-08-05T04:16:37.847Z,97810.72
2022-08-05T04:20:41.271Z,97821.16
2022-08-05T04:24:52.564Z,97822.00
2022-08-05T04:28:55.081Z,97820.00
2022-08-05T04:32:57.226Z,97814.53
2022-08-05T04:36:59.472Z,97821.81
2022-08-05T04:41:03.537Z,97819.84
2022-08-05T04:45:07.385Z,97813.09
2022-08-05T04:49:14.641Z,97817.31
2022-08-05T04:53:18.477Z,97821.00
2022-08-05T04:57:20.509Z,97825.09
2022-08-05T05:01:33.688Z,97809.75
2022-08-05T05:06:40.039Z,97809.72
2022-08-05T05:10:07.049Z,97791.75
2022-08-05T05:14:09.095Z,97808.34
2022-08-05T05:18:31.315Z,97820.16
2022-08-05T05:22:40.962Z,97824.34
2022-08-05T05:26:43.111Z,97815.91
2022-08-05T05:30:49.673Z,97812.41
2022-08-05T05:34:52.472Z,97827.13
2022-08-05T05:38:54.641Z,97836.19
2022-08-05T05:42:57.437Z,97817.75
2022-08-05T05:47:04.425Z,97807.69
2022-08-05T05:51:15.061Z,97822.34
2022-08-05T05:55:18.648Z,97812.19
2022-08-05T05:59:20.808Z,97814.88
2022-08-05T06:03:39.709Z,97826.56
2022-08-05T06:07:57.992Z,97800.47
2022-08-05T06:12:04.585Z,97787.03
2022-08-05T06:16:30.851Z,97790.22
2022-08-05T06:20:28.888Z,97771.78
2022-08-05T06:24:31.683Z,97748.41
2022-08-05T06:28:33.687Z,97769.47
2022-08-05T06:32:36.137Z,97792.81
2022-08-05T06:36:57.136Z,97807.75
2022-08-05T06:41:00.712Z,97808.88
2022-08-05T06:45:05.583Z,97790.84
2022-08-05T06:49:10.795Z,97767.75
2022-08-05T06:53:22.541Z,97737.53
2022-08-05T06:57:57.427Z,97725.81
2022-08-05T07:01:53.026Z,97750.81
2022-08-05T07:05:55.303Z,97763.66
2022-08-05T07:09:59.066Z,97774.91
2022-08-05T07:14:29.337Z,97786.94
2022-08-05T07:18:32.860Z,97773.34
2022-08-05T07:22:35.584Z,97814.88
2022-08-05T07:26:37.870Z,97848.59
2022-08-05T07:30:41.311Z,97883.81
2022-08-05T07:34:45.221Z,97867.03
2022-08-05T07:38:47.967Z,97890.25
2022-08-05T07:42:51.151Z,97880.56
2022-08-05T07:46:53.438Z,97892.66
2022-08-05T07:50:55.957Z,97901.09
2022-08-05T07:55:02.182Z,97895.88
2022-08-05T07:59:17.685Z,97889.84
2022-08-05T08:03:25.510Z,97885.09
2022-08-05T08:07:59.141Z,97897.41
2022-08-05T08:12:10.707Z,97891.34
2022-08-05T08:16:34.490Z,97877.56
2022-08-05T08:20:59.778Z,97896.53
2022-08-05T08:25:16.056Z,97885.44
2022-08-05T08:29:45.416Z,97915.72
2022-08-05T08:33:40.589Z,97899.22
2022-08-05T08:37:45.061Z,97906.13
2022-08-05T08:41:52.344Z,97903.63
2022-08-05T08:46:04.225Z,97909.50
2022-08-05T08:50:29.829Z,97918.91
2022-08-05T08:54:30.534Z,97910.16
2022-08-05T08:58:43.506Z,97897.81
2022-08-05T09:02:52.561Z,97895.47
2022-08-05T09:06:54.608Z,97894.13
2022-08-05T09:10:56.719Z,97892.25
2022-08-05T09:15:05.808Z,97892.88
2022-08-05T09:19:09.048Z,97902.19
2022-08-05T09:23:18.714Z,97894.19
2022-08-05T09:28:05.427Z,97898.72
2022-08-05T09:32:51.332Z,97899.75
2022-08-05T09:36:56.279Z,97887.97
2022-08-05T09:41:06.376Z,97876.56
2022-08-05T09:46:05.273Z,97883.63
2022-08-05T09:49:54.858Z,97902.09
2022-08-05T09:53:59.110Z,97901.06
2022-08-05T09:58:10.297Z,97897.19
2022-08-05T10:02:13.342Z,97883.69
2022-08-05T10:06:19.514Z,97863.97
2022-08-05T10:10:33.063Z,97880.50
2022-08-05T10:14:35.084Z,97868.19
2022-08-05T10:18:38.605Z,97872.78
2022-08-05T10:22:50.843Z,97885.19
2022-08-05T10:26:55.940Z,97888.94
2022-08-05T10:32:49.351Z,97889.25
2022-08-05T10:35:33.632Z,97877.81
2022-08-05T10:40:03.420Z,97879.56
2022-08-05T10:44:07.119Z,97902.97
2022-08-05T10:48:31.780Z,97917.69
2022-08-05T10:52:49.433Z,97925.25
2022-08-05T10:56:55.944Z,97923.53
2022-08-05T11:01:03.002Z,97918.72
2022-08-05T11:05:10.557Z,97913.56
2022-08-05T11:09:24.447Z,97921.47
2022-08-05T11:13:54.987Z,97926.94
2022-08-05T11:18:11.700Z,97939.44
2022-08-05T11:22:53.876Z,97940.75
2022-08-05T11:27:29.129Z,97958.22
2022-08-05T11:32:24.412Z,97964.63
2022-08-05T11:36:42.841Z,97983.06
2022-08-05T11:41:14.019Z,97971.50
2022-08-05T11:46:27.487Z,97942.28
2022-08-05T11:49:49.781Z,97967.31
2022-08-05T11:53:54.947Z,97964.97
2022-08-05T11:58:09.556Z,97979.47
2022-08-05T12:02:24.129Z,97980.47
2022-08-05T12:06:35.604Z,97983.31
2022-08-05T12:10:44.949Z,97988.16
2022-08-05T12:14:48.782Z,97992.78
2022-08-05T12:18:52.984Z,98005.41
2022-08-05T12:23:09.165Z,98008.13
2022-08-05T12:27:25.173Z,98008.81
2022-08-05T12:31:33.539Z,98011.78
2022-08-05T12:35:47.248Z,98024.28
2022-08-05T12:39:51.968Z,98023.28
2022-08-05T12:44:02.753Z,98027.16
2022-08-05T12:48:27.630Z,98030.28
2022-08-05T12:52:38.122Z,98008.41
2022-08-05T12:56:48.369Z,98023.19
2022-08-05T13:02:02.674Z,98025.03
2022-08-05T13:05:15.273Z,98029.91
2022-08-05T13:09:28.290Z,98036.63
2022-08-05T13:14:06.834Z,98030.91
2022-08-05T13:17:54.890Z,98037.91
2022-08-05T13:22:01.519Z,98052.38
2022-08-05T13:26:05.734Z,98050.03
2022-08-05T13:30:32.477Z,98055.25
2022-08-05T13:34:36.258Z,98049.75
2022-08-05T13:38:43.322Z,98073.59
2022-08-05T13:42:45.822Z,98088.53
2022-08-05T13:47:08.838Z,98096.47
2022-08-05T13:51:13.420Z,98112.72
2022-08-05T13:55:41.868Z,98106.56
2022-08-05T13:59:57.595Z,98108.28
2022-08-05T14:04:20.138Z,98103.94
2022-08-05T14:08:27.880Z,98090.44
2022-08-05T14:12:34.574Z,98101.34
2022-08-05T14:16:36.607Z,98094.78
2022-08-05T14:20:47.351Z,98093.75
2022-08-05T14:24:50.289Z,98094.94
2022-08-05T14:28:52.581Z,98095.00
2022-08-05T14:32:54.714Z,98118.22
2022-08-05T14:36:58.899Z,98138.25
2022-08-05T14:41:05.776Z,98149.03
2022-08-05T14:45:10.006Z,98148.75
2022-08-05T14:49:12.022Z,98138.19
2022-08-05T14:53:14.325Z,98130.13
2022-08-05T14:57:16.329Z,98129.97
2022-08-05T15:01:22.768Z,98123.59
2022-08-05T15:06:07.838Z,98140.22
2022-08-05T15:10:04.298Z,98139.66
2022-08-05T15:14:11.657Z,98142.19
2022-08-05T15:18:35.277Z,98143.50
2022-08-05T15:22:39.230Z,98146.81
2022-08-05T15:26:41.268Z,98150.78
2022-08-05T15:30:46.442Z,98163.09
2022-08-05T15:34:48.705Z,98161.91
2022-08-05T15:40:42.629Z,98168.75
2022-08-05T15:43:20.635Z,98168.94
2022-08-05T15:47:23.670Z,98173.47
2022-08-05T15:52:10.274Z,98178.63
2022-08-05T15:56:03.704Z,98174.69
2022-08-05T16:00:08.148Z,98184.28
2022-08-05T16:04:10.285Z,98191.34
2022-08-05T16:08:16.021Z,98190.34
2022-08-05T16:12:21.633Z,98205.09
2022-08-05T16:16:25.460Z,98193.81
2022-08-05T16:20:27.983Z,98197.78
2022-08-05T16:24:41.567Z,98208.47
2022-08-05T16:28:53.150Z,98211.56
2022-08-05T16:32:57.752Z,98217.75
2022-08-05T16:36:59.850Z,98214.47
2022-08-05T16:41:02.486Z,98223.94
2022-08-05T16:46:05.267Z,98212.81
2022-08-05T16:49:46.670Z,98207.25
2022-08-05T16:54:03.914Z,98224.03
2022-08-05T16:58:08.807Z,98224.88
2022-08-05T17:02:11.418Z,98220.59
2022-08-05T17:06:16.551Z,98218.22
2022-08-05T17:10:18.819Z,98221.75
2022-08-05T17:14:34.078Z,98227.53
2022-08-05T17:18:36.839Z,98231.97
2022-08-05T17:22:41.074Z,98230.09
2022-08-05T17:26:43.112Z,98230.34
2022-08-05T17:30:50.780Z,98237.06
2022-08-05T17:34:54.457Z,98245.63
2022-08-05T17:39:00.370Z,98245.03
2022-08-05T17:43:03.532Z,98253.19
2022-08-05T17:47:09.900Z,98257.34
2022-08-05T17:51:13.831Z,98253.44
2022-08-05T17:55:34.371Z,98252.91
2022-08-05T17:59:40.649Z,98257.53
2022-08-05T18:03:58.575Z,98267.50
2022-08-05T18:08:03.134Z,98276.91
2022-08-05T18:12:05.721Z,98283.63
2022-08-05T18:16:09.511Z,98286.16
2022-08-05T18:20:16.055Z,98288.75
2022-08-05T18:24:18.136Z,98288.84
2022-08-05T18:28:22.050Z,98297.34
2022-08-05T18:32:30.699Z,98303.81
2022-08-05T18:36:35.518Z,98316.25
2022-08-05T18:41:53.616Z,98329.91
2022-08-05T18:45:00.148Z,98329.94
2022-08-05T18:49:20.884Z,98330.13
2022-08-05T18:53:26.292Z,98345.72
2022-08-05T18:57:28.395Z,98357.16
2022-08-05T19:01:48.028Z,98361.41
2022-08-05T19:06:12.226Z,98366.91
2022-08-05T19:10:28.172Z,98363.63
2022-08-05T19:14:53.464Z,98386.34
2022-08-05T19:18:53.476Z,98391.50
2022-08-05T19:22:58.591Z,98397.66
2022-08-05T19:27:00.716Z,98405.75
2022-08-05T19:31:06.321Z,98417.22
2022-08-05T19:35:08.889Z,98425.97
2022-08-05T19:39:10.940Z,98436.53
2022-08-05T19:44:04.634Z,98452.47
2022-08-05T19:47:37.571Z,98463.13
2022-08-05T19:52:05.949Z,98467.44
2022-08-05T19:56:14.497Z,98477.88
2022-08-05T20:00:25.189Z,98471.81
2022-08-05T20:04:28.816Z,98475.22
2022-08-05T20:08:31.294Z,98465.53
2022-08-05T20:12:34.410Z,98470.22
2022-08-05T20:16:36.448Z,98475.97
2022-08-05T20:20:43.431Z,98483.19
2022-08-05T20:24:45.436Z,98491.59
2022-08-05T20:28:50.850Z,98498.16
2022-08-05T20:32:53.771Z,98501.28
2022-08-05T20:36:55.852Z,98500.44
2022-08-05T20:40:58.248Z,98513.28
2022-08-05T20:45:00.697Z,98517.19
2022-08-05T20:49:06.274Z,98530.38
2022-08-05T20:53:15.759Z,98529.06
2022-08-05T20:57:42.213Z,98543.69
2022-08-05T21:01:40.709Z,98543.75
2022-08-05T21:05:53.350Z,98543.22
2022-08-05T21:09:57.157Z,98551.56
2022-08-05T21:14:00.332Z,98546.13
2022-08-05T21:18:03.728Z,98558.94
2022-08-05T21:22:06.048Z,98559.94
2022-08-05T21:26:12.300Z,98559.69
2022-08-05T21:30:17.603Z,98557.78
2022-08-05T21:34:20.403Z,98564.22
2022-08-05T21:38:24.133Z,98563.94
2022-08-05T21:42:40.900Z,98551.53
2022-08-05T21:46:46.390Z,98565.19
2022-08-05T21:50:54.170Z,98568.22
2022-08-05T21:54:57.802Z,98574.09
2022-08-05T21:59:22.520Z,98575.59
2022-08-05T22:03:52.630Z,98575.22
2022-08-05T22:07:58.870Z,98574.84
2022-08-05T22:12:09.685Z,98581.44
2022-08-05T22:16:39.579Z,98578.22
2022-08-05T22:20:34.974Z,98586.63
2022-08-05T22:24:59.721Z,98594.00
2022-08-05T22:29:02.097Z,98602.53
2022-08-05T22:33:15.242Z,98611.72
2022-08-05T22:37:17.952Z,98615.34
2022-08-05T22:42:04.807Z,98601.50
2022-08-05T22:45:43.242Z,98596.19
2022-08-05T22:50:21.509Z,98604.44
2022-08-05T22:54:11.543Z,98601.34
2022-08-05T22:58:14.671Z,98610.88
2022-08-05T23:02:18.376Z,98622.91
2022-08-05T23:06:30.769Z,98633.88
2022-08-05T23:10:32.781Z,98629.78
2022-08-05T23:14:35.229Z,98629.09
2022-08-05T23:18:38.515Z,98636.97
2022-08-05T23:22:40.683Z,98638.88
2022-08-05T23:26:42.746Z,98647.97
2022-08-05T23:30:53.623Z,98663.06
2022-08-05T23:34:56.499Z,98659.81
2022-08-05T23:38:58.622Z,98655.81
2022-08-05T23:43:00.718Z,98657.81
2022-08-05T23:47:15.139Z,98664.94
2022-08-05T23:51:17.778Z,98664.50
2022-08-05T23:55:20.549Z,98667.75
2022-08-05T23:59:27.667Z,98671.50
